sensor_id;sensor_type;location;lat;lon;timestamp;temperature;humidity
36186;DHT22;22228;53.222;7.446;2023-07-29T00:00:35;17.20;99.90
36186;DHT22;22228;53.222;7.446;2023-07-29T00:02:55;17.10;99.90
36186;DHT22;22228;53.222;7.446;2023-07-29T00:05:16;17.00;99.90
36186;DHT22;22228;53.222;7.446;2023-07-29T00:07:38;17.00;99.90
36186;DHT22;22228;53.222;7.446;2023-07-29T00:09:59;16.90;99.90
36186;DHT22;22228;53.222;7.446;2023-07-29T00:12:19;16.90;99.90
36186;DHT22;22228;53.222;7.446;2023-07-29T00:14:40;16.90;99.90
36186;DHT22;22228;53.222;7.446;2023-07-29T03:00:15;16.60;99.90
36186;DHT22;22228;53.222;7.446;2023-07-29T03:02:33;16.60;99.90
36186;DHT22;22228;53.222;7.446;2023-07-29T03:04:53;16.60;99.90
36186;DHT22;22228;53.222;7.446;2023-07-29T03:07:14;16.60;99.90
36186;DHT22;22228;53.222;7.446;2023-07-29T03:09:36;16.60;99.90
36186;DHT22;22228;53.222;7.446;2023-07-29T03:11:56;16.50;99.90
36186;DHT22;22228;53.222;7.446;2023-07-29T03:14:29;16.50;99.90
36186;DHT22;22228;53.222;7.446;2023-07-29T03:16:51;16.40;99.90
36186;DHT22;22228;53.222;7.446;2023-07-29T03:19:12;16.40;99.90
36186;DHT22;22228;53.222;7.446;2023-07-29T03:21:33;16.40;99.90
36186;DHT22;22228;53.222;7.446;2023-07-29T03:23:54;16.40;99.90
36186;DHT22;22228;53.222;7.446;2023-07-29T03:26:14;16.40;99.90
36186;DHT22;22228;53.222;7.446;2023-07-29T03:28:36;16.40;99.90
36186;DHT22;22228;53.222;7.446;2023-07-29T03:30:57;16.40;99.90
36186;DHT22;22228;53.222;7.446;2023-07-29T03:33:19;16.30;99.90
36186;DHT22;22228;53.222;7.446;2023-07-29T03:35:39;16.30;99.90
36186;DHT22;22228;53.222;7.446;2023-07-29T03:38:03;16.30;99.90
36186;DHT22;22228;53.222;7.446;2023-07-29T03:40:23;16.30;99.90
36186;DHT22;22228;53.222;7.446;2023-07-29T03:42:44;16.40;99.90
36186;DHT22;22228;53.222;7.446;2023-07-29T03:45:05;16.40;99.90
36186;DHT22;22228;53.222;7.446;2023-07-29T03:47:26;16.40;99.90
36186;DHT22;22228;53.222;7.446;2023-07-29T03:49:50;16.50;99.90
36186;DHT22;22228;53.222;7.446;2023-07-29T03:52:13;16.50;99.90
36186;DHT22;22228;53.222;7.446;2023-07-29T03:54:33;16.40;99.90
36186;DHT22;22228;53.222;7.446;2023-07-29T03:56:54;16.40;99.90
36186;DHT22;22228;53.222;7.446;2023-07-29T03:59:15;16.40;99.90
36186;DHT22;22228;53.222;7.446;2023-07-29T04:01:35;16.30;99.90
36186;DHT22;22228;53.222;7.446;2023-07-29T04:03:56;16.30;99.90
36186;DHT22;22228;53.222;7.446;2023-07-29T04:06:17;16.30;99.90
36186;DHT22;22228;53.222;7.446;2023-07-29T04:08:38;16.30;99.90
36186;DHT22;22228;53.222;7.446;2023-07-29T04:11:00;16.30;99.90
36186;DHT22;22228;53.222;7.446;2023-07-29T04:13:21;16.30;99.90
36186;DHT22;22228;53.222;7.446;2023-07-29T04:15:41;16.30;99.90
36186;DHT22;22228;53.222;7.446;2023-07-29T04:18:02;16.30;99.90
36186;DHT22;22228;53.222;7.446;2023-07-29T04:20:22;16.40;99.90
36186;DHT22;22228;53.222;7.446;2023-07-29T04:22:44;16.40;99.90
36186;DHT22;22228;53.222;7.446;2023-07-29T04:25:06;16.40;99.90
36186;DHT22;22228;53.222;7.446;2023-07-29T04:27:26;16.40;99.90
36186;DHT22;22228;53.222;7.446;2023-07-29T04:29:47;16.30;99.90
36186;DHT22;22228;53.222;7.446;2023-07-29T04:32:08;16.30;99.90
36186;DHT22;22228;53.222;7.446;2023-07-29T04:34:28;16.30;99.90
36186;DHT22;22228;53.222;7.446;2023-07-29T04:36:49;16.30;99.90
36186;DHT22;22228;53.222;7.446;2023-07-29T04:39:11;16.40;99.90
36186;DHT22;22228;53.222;7.446;2023-07-29T04:41:32;16.40;99.90
36186;DHT22;22228;53.222;7.446;2023-07-29T04:43:52;16.40;99.90
36186;DHT22;22228;53.222;7.446;2023-07-29T04:46:13;16.50;99.90
36186;DHT22;22228;53.222;7.446;2023-07-29T04:48:33;16.50;99.90
36186;DHT22;22228;53.222;7.446;2023-07-29T04:50:54;16.60;99.90
36186;DHT22;22228;53.222;7.446;2023-07-29T04:53:15;16.60;99.90
36186;DHT22;22228;53.222;7.446;2023-07-29T04:55:37;16.60;99.90
36186;DHT22;22228;53.222;7.446;2023-07-29T04:57:57;16.70;99.90
36186;DHT22;22228;53.222;7.446;2023-07-29T05:00:19;16.70;99.90
36186;DHT22;22228;53.222;7.446;2023-07-29T05:02:39;16.60;99.90
36186;DHT22;22228;53.222;7.446;2023-07-29T05:05:00;16.70;99.90
36186;DHT22;22228;53.222;7.446;2023-07-29T05:07:21;16.70;99.90
36186;DHT22;22228;53.222;7.446;2023-07-29T05:09:42;16.70;99.90
36186;DHT22;22228;53.222;7.446;2023-07-29T05:12:05;16.70;99.90
36186;DHT22;22228;53.222;7.446;2023-07-29T05:14:26;16.70;99.90
36186;DHT22;22228;53.222;7.446;2023-07-29T05:16:47;16.70;99.90
36186;DHT22;22228;53.222;7.446;2023-07-29T05:19:08;16.80;99.90
36186;DHT22;22228;53.222;7.446;2023-07-29T05:21:29;16.80;99.90
36186;DHT22;22228;53.222;7.446;2023-07-29T05:23:49;16.90;99.90
36186;DHT22;22228;53.222;7.446;2023-07-29T05:26:09;17.00;99.90
36186;DHT22;22228;53.222;7.446;2023-07-29T05:28:31;17.10;99.90
36186;DHT22;22228;53.222;7.446;2023-07-29T05:30:52;17.20;99.90
36186;DHT22;22228;53.222;7.446;2023-07-29T05:33:12;17.30;99.90
36186;DHT22;22228;53.222;7.446;2023-07-29T05:35:33;17.30;99.90
36186;DHT22;22228;53.222;7.446;2023-07-29T05:37:53;17.40;99.90
36186;DHT22;22228;53.222;7.446;2023-07-29T05:40:14;17.40;99.90
36186;DHT22;22228;53.222;7.446;2023-07-29T05:42:34;17.50;99.90
36186;DHT22;22228;53.222;7.446;2023-07-29T05:44:56;17.60;99.90
36186;DHT22;22228;53.222;7.446;2023-07-29T05:47:17;17.60;99.90
36186;DHT22;22228;53.222;7.446;2023-07-29T05:49:37;17.60;99.90
36186;DHT22;22228;53.222;7.446;2023-07-29T05:51:58;17.70;99.90
36186;DHT22;22228;53.222;7.446;2023-07-29T05:54:18;17.80;99.90
36186;DHT22;22228;53.222;7.446;2023-07-29T05:56:39;17.80;99.90
36186;DHT22;22228;53.222;7.446;2023-07-29T05:59:01;17.90;99.90
36186;DHT22;22228;53.222;7.446;2023-07-29T06:01:23;17.90;99.90
36186;DHT22;22228;53.222;7.446;2023-07-29T06:03:45;17.90;99.90
36186;DHT22;22228;53.222;7.446;2023-07-29T06:06:06;18.00;99.90
36186;DHT22;22228;53.222;7.446;2023-07-29T06:08:27;18.00;99.90
36186;DHT22;22228;53.222;7.446;2023-07-29T06:10:48;18.00;99.90
36186;DHT22;22228;53.222;7.446;2023-07-29T06:13:08;18.10;99.90
36186;DHT22;22228;53.222;7.446;2023-07-29T06:15:29;18.10;99.90
36186;DHT22;22228;53.222;7.446;2023-07-29T06:17:51;18.20;99.90
36186;DHT22;22228;53.222;7.446;2023-07-29T06:20:12;18.30;99.90
36186;DHT22;22228;53.222;7.446;2023-07-29T06:22:33;18.30;99.90
36186;DHT22;22228;53.222;7.446;2023-07-29T06:24:53;18.40;99.90
36186;DHT22;22228;53.222;7.446;2023-07-29T06:27:14;18.40;99.90
36186;DHT22;22228;53.222;7.446;2023-07-29T06:29:35;18.50;99.90
36186;DHT22;22228;53.222;7.446;2023-07-29T06:31:55;18.50;99.90
36186;DHT22;22228;53.222;7.446;2023-07-29T06:34:17;18.50;99.90
36186;DHT22;22228;53.222;7.446;2023-07-29T06:36:38;18.50;99.90
36186;DHT22;22228;53.222;7.446;2023-07-29T06:38:58;18.50;99.90
36186;DHT22;22228;53.222;7.446;2023-07-29T06:41:19;18.50;99.90
36186;DHT22;22228;53.222;7.446;2023-07-29T06:43:39;18.50;99.90
36186;DHT22;22228;53.222;7.446;2023-07-29T06:46:00;18.50;99.90
36186;DHT22;22228;53.222;7.446;2023-07-29T06:48:20;18.60;99.90
36186;DHT22;22228;53.222;7.446;2023-07-29T06:50:42;18.60;99.90
36186;DHT22;22228;53.222;7.446;2023-07-29T06:53:03;18.60;99.90
36186;DHT22;22228;53.222;7.446;2023-07-29T06:55:23;18.60;99.90
36186;DHT22;22228;53.222;7.446;2023-07-29T06:57:44;18.70;99.90
36186;DHT22;22228;53.222;7.446;2023-07-29T07:00:05;18.70;99.90
36186;DHT22;22228;53.222;7.446;2023-07-29T07:02:28;18.80;99.90
36186;DHT22;22228;53.222;7.446;2023-07-29T07:04:48;18.90;99.90
36186;DHT22;22228;53.222;7.446;2023-07-29T07:07:10;19.10;99.90
36186;DHT22;22228;53.222;7.446;2023-07-29T07:09:30;19.20;99.90
36186;DHT22;22228;53.222;7.446;2023-07-29T07:11:51;19.20;99.90
36186;DHT22;22228;53.222;7.446;2023-07-29T07:14:12;19.20;99.90
36186;DHT22;22228;53.222;7.446;2023-07-29T07:16:33;19.40;99.90
36186;DHT22;22228;53.222;7.446;2023-07-29T07:18:56;19.40;99.90
36186;DHT22;22228;53.222;7.446;2023-07-29T07:21:16;19.50;99.90
36186;DHT22;22228;53.222;7.446;2023-07-29T07:23:38;19.50;99.90
36186;DHT22;22228;53.222;7.446;2023-07-29T07:25:59;19.40;99.90
36186;DHT22;22228;53.222;7.446;2023-07-29T07:28:19;19.50;99.90
36186;DHT22;22228;53.222;7.446;2023-07-29T07:30:40;19.50;99.90
36186;DHT22;22228;53.222;7.446;2023-07-29T07:33:01;19.60;99.90
36186;DHT22;22228;53.222;7.446;2023-07-29T07:35:22;19.60;99.90
36186;DHT22;22228;53.222;7.446;2023-07-29T07:37:42;19.60;99.90
36186;DHT22;22228;53.222;7.446;2023-07-29T07:40:05;19.70;99.90
36186;DHT22;22228;53.222;7.446;2023-07-29T07:42:26;19.80;99.90
36186;DHT22;22228;53.222;7.446;2023-07-29T07:44:46;20.00;99.90
36186;DHT22;22228;53.222;7.446;2023-07-29T07:47:07;20.20;99.90
36186;DHT22;22228;53.222;7.446;2023-07-29T07:49:27;20.30;99.90
36186;DHT22;22228;53.222;7.446;2023-07-29T07:51:48;20.40;99.90
36186;DHT22;22228;53.222;7.446;2023-07-29T07:54:08;20.50;99.90
36186;DHT22;22228;53.222;7.446;2023-07-29T07:56:30;20.70;99.90
36186;DHT22;22228;53.222;7.446;2023-07-29T07:58:51;20.70;99.90
36186;DHT22;22228;53.222;7.446;2023-07-29T08:01:12;20.60;99.90
36186;DHT22;22228;53.222;7.446;2023-07-29T08:03:32;20.50;99.90
36186;DHT22;22228;53.222;7.446;2023-07-29T08:05:53;20.50;99.90
36186;DHT22;22228;53.222;7.446;2023-07-29T08:08:14;20.50;99.90
36186;DHT22;22228;53.222;7.446;2023-07-29T08:10:34;20.60;99.90
36186;DHT22;22228;53.222;7.446;2023-07-29T08:12:56;20.50;99.90
36186;DHT22;22228;53.222;7.446;2023-07-29T08:15:17;20.70;99.90
36186;DHT22;22228;53.222;7.446;2023-07-29T08:17:37;20.90;99.90
36186;DHT22;22228;53.222;7.446;2023-07-29T08:19:58;21.00;84.80
36186;DHT22;22228;53.222;7.446;2023-07-29T08:22:18;21.10;73.30
36186;DHT22;22228;53.222;7.446;2023-07-29T08:24:39;21.30;41.70
36186;DHT22;22228;53.222;7.446;2023-07-29T08:27:00;21.40;11.60
36186;DHT22;22228;53.222;7.446;2023-07-29T08:29:22;21.40;7.80
36186;DHT22;22228;53.222;7.446;2023-07-29T08:31:43;21.30;1.00
36186;DHT22;22228;53.222;7.446;2023-07-29T08:34:03;21.10;1.00
36186;DHT22;22228;53.222;7.446;2023-07-29T08:36:24;21.00;5.50
36186;DHT22;22228;53.222;7.446;2023-07-29T08:38:44;21.10;14.00
36186;DHT22;22228;53.222;7.446;2023-07-29T08:41:12;21.10;10.10
36186;DHT22;22228;53.222;7.446;2023-07-29T08:43:34;21.20;31.50
36186;DHT22;22228;53.222;7.446;2023-07-29T08:45:57;21.10;19.70
36186;DHT22;22228;53.222;7.446;2023-07-29T08:48:23;21.00;41.20
36186;DHT22;22228;53.222;7.446;2023-07-29T08:50:48;21.10;9.40
36186;DHT22;22228;53.222;7.446;2023-07-29T08:53:09;21.10;1.00
36186;DHT22;22228;53.222;7.446;2023-07-29T08:55:31;21.20;1.00
36186;DHT22;22228;53.222;7.446;2023-07-29T08:57:51;21.00;1.00
36186;DHT22;22228;53.222;7.446;2023-07-29T09:00:13;20.90;19.20
36186;DHT22;22228;53.222;7.446;2023-07-29T09:02:35;20.90;10.60
36186;DHT22;22228;53.222;7.446;2023-07-29T09:04:55;20.80;23.20
36186;DHT22;22228;53.222;7.446;2023-07-29T09:07:16;20.70;51.60
36186;DHT22;22228;53.222;7.446;2023-07-29T09:09:37;20.70;62.20
36186;DHT22;22228;53.222;7.446;2023-07-29T09:11:57;20.70;62.60
36186;DHT22;22228;53.222;7.446;2023-07-29T09:14:18;20.70;62.90
36186;DHT22;22228;53.222;7.446;2023-07-29T09:16:38;20.80;55.90
36186;DHT22;22228;53.222;7.446;2023-07-29T09:19:02;21.00;57.30
36186;DHT22;22228;53.222;7.446;2023-07-29T09:21:24;21.10;1.00
36186;DHT22;22228;53.222;7.446;2023-07-29T09:23:45;21.20;12.60
36186;DHT22;22228;53.222;7.446;2023-07-29T09:26:06;21.30;1.10
36186;DHT22;22228;53.222;7.446;2023-07-29T09:28:33;21.40;1.00
36186;DHT22;22228;53.222;7.446;2023-07-29T09:30:53;21.50;1.00
36186;DHT22;22228;53.222;7.446;2023-07-29T09:33:14;21.50;1.00
36186;DHT22;22228;53.222;7.446;2023-07-29T09:35:37;21.80;1.00
36186;DHT22;22228;53.222;7.446;2023-07-29T09:37:57;22.10;99.90
36186;DHT22;22228;53.222;7.446;2023-07-29T09:40:18;22.30;1.00
36186;DHT22;22228;53.222;7.446;2023-07-29T09:42:39;22.30;1.00
36186;DHT22;22228;53.222;7.446;2023-07-29T09:45:00;22.40;1.00
36186;DHT22;22228;53.222;7.446;2023-07-29T09:47:21;22.40;1.00
36186;DHT22;22228;53.222;7.446;2023-07-29T09:49:41;22.40;99.90
36186;DHT22;22228;53.222;7.446;2023-07-29T09:52:04;22.40;99.90
36186;DHT22;22228;53.222;7.446;2023-07-29T09:54:25;22.30;1.00
36186;DHT22;22228;53.222;7.446;2023-07-29T09:56:45;22.30;99.90
36186;DHT22;22228;53.222;7.446;2023-07-29T09:59:07;22.30;1.00
36186;DHT22;22228;53.222;7.446;2023-07-29T10:01:27;22.40;36.10
36186;DHT22;22228;53.222;7.446;2023-07-29T10:03:49;22.70;1.00
36186;DHT22;22228;53.222;7.446;2023-07-29T10:06:10;22.70;1.00
36186;DHT22;22228;53.222;7.446;2023-07-29T10:08:33;22.70;1.00
36186;DHT22;22228;53.222;7.446;2023-07-29T10:10:55;22.50;99.90
36186;DHT22;22228;53.222;7.446;2023-07-29T10:13:16;22.60;99.90
36186;DHT22;22228;53.222;7.446;2023-07-29T10:15:36;22.70;99.90
36186;DHT22;22228;53.222;7.446;2023-07-29T10:17:58;22.80;99.90
36186;DHT22;22228;53.222;7.446;2023-07-29T10:20:19;22.90;99.90
36186;DHT22;22228;53.222;7.446;2023-07-29T10:22:41;22.90;1.00
36186;DHT22;22228;53.222;7.446;2023-07-29T10:25:06;23.00;24.00
36186;DHT22;22228;53.222;7.446;2023-07-29T10:27:28;22.90;1.00
36186;DHT22;22228;53.222;7.446;2023-07-29T10:29:49;22.70;25.10
36186;DHT22;22228;53.222;7.446;2023-07-29T10:32:11;22.60;48.40
36186;DHT22;22228;53.222;7.446;2023-07-29T10:34:32;22.60;1.00
36186;DHT22;22228;53.222;7.446;2023-07-29T10:36:53;22.60;1.00
36186;DHT22;22228;53.222;7.446;2023-07-29T10:39:14;22.70;99.90
36186;DHT22;22228;53.222;7.446;2023-07-29T10:41:55;22.50;1.00
36186;DHT22;22228;53.222;7.446;2023-07-29T10:44:47;22.40;1.00
36186;DHT22;22228;53.222;7.446;2023-07-29T10:47:11;22.60;1.00
36186;DHT22;22228;53.222;7.446;2023-07-29T10:49:35;22.70;1.00
36186;DHT22;22228;53.222;7.446;2023-07-29T10:51:56;22.70;1.00
36186;DHT22;22228;53.222;7.446;2023-07-29T10:54:16;22.80;99.90
36186;DHT22;22228;53.222;7.446;2023-07-29T10:56:40;22.90;1.00
36186;DHT22;22228;53.222;7.446;2023-07-29T10:59:32;23.20;99.90
36186;DHT22;22228;53.222;7.446;2023-07-29T11:01:58;23.30;1.00
36186;DHT22;22228;53.222;7.446;2023-07-29T11:04:26;23.00;99.90
36186;DHT22;22228;53.222;7.446;2023-07-29T11:07:20;23.40;1.00
36186;DHT22;22228;53.222;7.446;2023-07-29T11:09:56;24.10;1.00
36186;DHT22;22228;53.222;7.446;2023-07-29T11:12:40;24.10;99.90
36186;DHT22;22228;53.222;7.446;2023-07-29T11:15:04;23.90;81.40
36186;DHT22;22228;53.222;7.446;2023-07-29T11:17:25;23.50;99.90
36186;DHT22;22228;53.222;7.446;2023-07-29T11:19:46;23.60;99.90
36186;DHT22;22228;53.222;7.446;2023-07-29T11:22:09;23.70;99.90
36186;DHT22;22228;53.222;7.446;2023-07-29T11:24:30;24.50;99.90
36186;DHT22;22228;53.222;7.446;2023-07-29T11:26:50;25.00;1.00
36186;DHT22;22228;53.222;7.446;2023-07-29T11:29:11;25.70;1.00
36186;DHT22;22228;53.222;7.446;2023-07-29T11:31:40;26.00;99.90
36186;DHT22;22228;53.222;7.446;2023-07-29T11:34:00;26.00;99.90
36186;DHT22;22228;53.222;7.446;2023-07-29T11:36:26;26.40;99.90
36186;DHT22;22228;53.222;7.446;2023-07-29T11:38:47;26.70;99.90
36186;DHT22;22228;53.222;7.446;2023-07-29T11:41:07;26.30;69.70
36186;DHT22;22228;53.222;7.446;2023-07-29T11:43:28;25.70;99.90
36186;DHT22;22228;53.222;7.446;2023-07-29T11:45:48;25.10;99.90
36186;DHT22;22228;53.222;7.446;2023-07-29T11:48:10;25.00;99.90
36186;DHT22;22228;53.222;7.446;2023-07-29T11:50:31;25.30;99.90
36186;DHT22;22228;53.222;7.446;2023-07-29T11:52:52;24.90;99.90
36186;DHT22;22228;53.222;7.446;2023-07-29T11:55:15;24.70;99.90
36186;DHT22;22228;53.222;7.446;2023-07-29T11:57:37;24.80;99.90
36186;DHT22;22228;53.222;7.446;2023-07-29T11:59:57;24.60;99.90
36186;DHT22;22228;53.222;7.446;2023-07-29T12:02:19;24.60;1.00
36186;DHT22;22228;53.222;7.446;2023-07-29T12:04:43;24.50;1.00
36186;DHT22;22228;53.222;7.446;2023-07-29T12:07:04;24.80;1.00
36186;DHT22;22228;53.222;7.446;2023-07-29T12:09:25;25.10;99.90
36186;DHT22;22228;53.222;7.446;2023-07-29T12:11:47;24.80;99.90
36186;DHT22;22228;53.222;7.446;2023-07-29T12:14:08;24.60;1.00
36186;DHT22;22228;53.222;7.446;2023-07-29T12:16:30;24.80;1.00
36186;DHT22;22228;53.222;7.446;2023-07-29T12:18:54;25.60;1.00
36186;DHT22;22228;53.222;7.446;2023-07-29T12:21:16;26.20;99.90
36186;DHT22;22228;53.222;7.446;2023-07-29T12:23:37;26.60;99.90
36186;DHT22;22228;53.222;7.446;2023-07-29T12:25:58;26.60;99.90
36186;DHT22;22228;53.222;7.446;2023-07-29T12:28:22;26.00;99.90
36186;DHT22;22228;53.222;7.446;2023-07-29T12:30:42;25.10;99.90
36186;DHT22;22228;53.222;7.446;2023-07-29T12:33:03;24.00;71.70
36186;DHT22;22228;53.222;7.446;2023-07-29T12:35:34;23.80;99.90
36186;DHT22;22228;53.222;7.446;2023-07-29T12:37:59;24.30;99.90
36186;DHT22;22228;53.222;7.446;2023-07-29T12:40:21;25.00;1.00
36186;DHT22;22228;53.222;7.446;2023-07-29T12:42:43;24.80;1.00
36186;DHT22;22228;53.222;7.446;2023-07-29T12:45:04;25.30;1.00
36186;DHT22;22228;53.222;7.446;2023-07-29T12:47:24;25.10;1.00
36186;DHT22;22228;53.222;7.446;2023-07-29T12:49:45;25.40;1.00
36186;DHT22;22228;53.222;7.446;2023-07-29T12:52:06;26.40;99.90
36186;DHT22;22228;53.222;7.446;2023-07-29T12:54:28;26.90;1.00
36186;DHT22;22228;53.222;7.446;2023-07-29T12:56:49;26.90;1.00
36186;DHT22;22228;53.222;7.446;2023-07-29T12:59:09;27.00;1.00
36186;DHT22;22228;53.222;7.446;2023-07-29T13:01:30;27.30;1.00
36186;DHT22;22228;53.222;7.446;2023-07-29T13:03:51;27.50;1.00
36186;DHT22;22228;53.222;7.446;2023-07-29T13:06:11;27.80;1.00
36186;DHT22;22228;53.222;7.446;2023-07-29T13:08:32;27.00;1.00
36186;DHT22;22228;53.222;7.446;2023-07-29T13:10:54;26.30;1.00
36186;DHT22;22228;53.222;7.446;2023-07-29T13:13:14;26.00;1.00
36186;DHT22;22228;53.222;7.446;2023-07-29T13:15:35;26.10;1.00
36186;DHT22;22228;53.222;7.446;2023-07-29T13:17:56;25.90;1.00
36186;DHT22;22228;53.222;7.446;2023-07-29T13:20:16;25.50;1.00
36186;DHT22;22228;53.222;7.446;2023-07-29T13:22:37;25.10;99.90
36186;DHT22;22228;53.222;7.446;2023-07-29T13:24:57;24.50;1.00
36186;DHT22;22228;53.222;7.446;2023-07-29T13:27:20;24.10;99.90
36186;DHT22;22228;53.222;7.446;2023-07-29T13:29:41;23.80;1.00
36186;DHT22;22228;53.222;7.446;2023-07-29T13:32:02;23.60;96.80
36186;DHT22;22228;53.222;7.446;2023-07-29T13:34:23;23.30;1.00
36186;DHT22;22228;53.222;7.446;2023-07-29T13:36:44;23.10;99.90
36186;DHT22;22228;53.222;7.446;2023-07-29T13:39:04;22.80;1.00
36186;DHT22;22228;53.222;7.446;2023-07-29T13:41:25;22.70;1.00
36186;DHT22;22228;53.222;7.446;2023-07-29T13:43:47;22.70;1.00
36186;DHT22;22228;53.222;7.446;2023-07-29T13:46:07;23.50;1.00
36186;DHT22;22228;53.222;7.446;2023-07-29T13:48:27;24.50;1.00
36186;DHT22;22228;53.222;7.446;2023-07-29T13:50:48;25.10;99.90
36186;DHT22;22228;53.222;7.446;2023-07-29T13:53:08;25.70;99.90
36186;DHT22;22228;53.222;7.446;2023-07-29T13:55:29;26.30;30.70
36186;DHT22;22228;53.222;7.446;2023-07-29T13:57:50;26.70;1.00
36186;DHT22;22228;53.222;7.446;2023-07-29T14:00:12;27.00;1.00
36186;DHT22;22228;53.222;7.446;2023-07-29T14:02:33;27.00;1.00
36186;DHT22;22228;53.222;7.446;2023-07-29T14:04:53;26.90;1.00
36186;DHT22;22228;53.222;7.446;2023-07-29T14:07:14;26.90;1.00
36186;DHT22;22228;53.222;7.446;2023-07-29T14:09:34;26.70;1.00
36186;DHT22;22228;53.222;7.446;2023-07-29T14:11:56;25.70;1.00
36186;DHT22;22228;53.222;7.446;2023-07-29T14:14:17;25.00;1.00
36186;DHT22;22228;53.222;7.446;2023-07-29T14:16:39;24.50;99.90
36186;DHT22;22228;53.222;7.446;2023-07-29T14:18:59;24.30;99.90
36186;DHT22;22228;53.222;7.446;2023-07-29T14:21:20;24.00;1.00
36186;DHT22;22228;53.222;7.446;2023-07-29T14:23:40;24.40;1.00
36186;DHT22;22228;53.222;7.446;2023-07-29T14:26:01;24.30;99.90
36186;DHT22;22228;53.222;7.446;2023-07-29T14:28:21;23.90;1.00
36186;DHT22;22228;53.222;7.446;2023-07-29T14:30:42;23.50;1.00
36186;DHT22;22228;53.222;7.446;2023-07-29T14:33:03;23.20;99.90
36186;DHT22;22228;53.222;7.446;2023-07-29T14:35:24;22.90;99.90
36186;DHT22;22228;53.222;7.446;2023-07-29T14:37:45;22.80;1.00
36186;DHT22;22228;53.222;7.446;2023-07-29T14:40:06;23.70;99.90
36186;DHT22;22228;53.222;7.446;2023-07-29T14:42:27;25.00;1.00
36186;DHT22;22228;53.222;7.446;2023-07-29T14:44:48;26.10;1.00
36186;DHT22;22228;53.222;7.446;2023-07-29T14:47:08;26.40;99.90
36186;DHT22;22228;53.222;7.446;2023-07-29T14:49:30;25.40;71.20
36186;DHT22;22228;53.222;7.446;2023-07-29T14:51:50;24.50;99.90
36186;DHT22;22228;53.222;7.446;2023-07-29T14:54:11;23.90;1.00
36186;DHT22;22228;53.222;7.446;2023-07-29T14:56:32;23.10;9.20
36186;DHT22;22228;53.222;7.446;2023-07-29T14:58:52;22.80;1.00
36186;DHT22;22228;53.222;7.446;2023-07-29T15:01:13;22.50;1.00
36186;DHT22;22228;53.222;7.446;2023-07-29T15:03:33;22.30;99.90
36186;DHT22;22228;53.222;7.446;2023-07-29T15:05:56;22.10;1.00
36186;DHT22;22228;53.222;7.446;2023-07-29T15:08:18;21.90;1.00
36186;DHT22;22228;53.222;7.446;2023-07-29T15:10:39;21.60;1.00
36186;DHT22;22228;53.222;7.446;2023-07-29T15:12:59;21.50;1.00
36186;DHT22;22228;53.222;7.446;2023-07-29T15:15:20;21.50;1.00
36186;DHT22;22228;53.222;7.446;2023-07-29T15:17:40;21.90;99.90
36186;DHT22;22228;53.222;7.446;2023-07-29T15:20:01;22.20;99.90
36186;DHT22;22228;53.222;7.446;2023-07-29T15:22:23;22.00;72.30
36186;DHT22;22228;53.222;7.446;2023-07-29T15:24:44;21.80;1.00
36186;DHT22;22228;53.222;7.446;2023-07-29T15:27:06;21.60;25.40
36186;DHT22;22228;53.222;7.446;2023-07-29T15:29:26;21.70;1.00
36186;DHT22;22228;53.222;7.446;2023-07-29T15:31:46;22.00;1.00
36186;DHT22;22228;53.222;7.446;2023-07-29T15:34:07;22.10;1.00
36186;DHT22;22228;53.222;7.446;2023-07-29T15:36:27;22.00;1.00
36186;DHT22;22228;53.222;7.446;2023-07-29T15:38:49;22.10;1.00
36186;DHT22;22228;53.222;7.446;2023-07-29T15:41:10;22.30;1.00
36186;DHT22;22228;53.222;7.446;2023-07-29T15:43:30;22.40;1.00
36186;DHT22;22228;53.222;7.446;2023-07-29T15:45:51;22.70;1.00
36186;DHT22;22228;53.222;7.446;2023-07-29T15:48:11;23.00;99.90
36186;DHT22;22228;53.222;7.446;2023-07-29T15:50:32;23.10;99.90
36186;DHT22;22228;53.222;7.446;2023-07-29T15:52:51;23.00;1.00
36186;DHT22;22228;53.222;7.446;2023-07-29T15:55:14;22.80;1.00
36186;DHT22;22228;53.222;7.446;2023-07-29T15:57:34;22.70;99.90
36186;DHT22;22228;53.222;7.446;2023-07-29T15:59:55;22.90;99.90
36186;DHT22;22228;53.222;7.446;2023-07-29T16:02:34;22.90;99.90
36186;DHT22;22228;53.222;7.446;2023-07-29T16:04:55;22.80;99.90
36186;DHT22;22228;53.222;7.446;2023-07-29T16:07:15;22.70;99.90
36186;DHT22;22228;53.222;7.446;2023-07-29T16:09:36;22.70;69.50
36186;DHT22;22228;53.222;7.446;2023-07-29T16:11:57;22.70;90.30
36186;DHT22;22228;53.222;7.446;2023-07-29T16:14:18;22.60;99.90
36186;DHT22;22228;53.222;7.446;2023-07-29T16:16:38;22.60;99.90
36186;DHT22;22228;53.222;7.446;2023-07-29T16:18:59;22.70;99.90
36186;DHT22;22228;53.222;7.446;2023-07-29T16:21:19;22.70;99.90
36186;DHT22;22228;53.222;7.446;2023-07-29T16:23:39;22.60;99.90
36186;DHT22;22228;53.222;7.446;2023-07-29T16:26:00;22.40;1.00
36186;DHT22;22228;53.222;7.446;2023-07-29T16:28:22;22.40;1.00
36186;DHT22;22228;53.222;7.446;2023-07-29T16:30:42;22.30;98.20
36186;DHT22;22228;53.222;7.446;2023-07-29T16:33:03;22.30;99.90
36186;DHT22;22228;53.222;7.446;2023-07-29T16:35:24;22.30;99.90
36186;DHT22;22228;53.222;7.446;2023-07-29T16:37:44;22.20;99.90
36186;DHT22;22228;53.222;7.446;2023-07-29T16:40:06;22.20;99.90
36186;DHT22;22228;53.222;7.446;2023-07-29T16:42:27;22.50;99.90
36186;DHT22;22228;53.222;7.446;2023-07-29T16:44:48;22.60;99.90
36186;DHT22;22228;53.222;7.446;2023-07-29T16:47:09;22.60;35.70
36186;DHT22;22228;53.222;7.446;2023-07-29T16:49:29;22.50;1.00
36186;DHT22;22228;53.222;7.446;2023-07-29T16:51:50;22.40;1.00
36186;DHT22;22228;53.222;7.446;2023-07-29T16:54:10;22.30;1.00
36186;DHT22;22228;53.222;7.446;2023-07-29T16:56:32;22.30;1.00
36186;DHT22;22228;53.222;7.446;2023-07-29T16:58:53;22.30;37.70
36186;DHT22;22228;53.222;7.446;2023-07-29T17:01:14;22.30;1.00
36186;DHT22;22228;53.222;7.446;2023-07-29T17:03:35;22.40;99.90
36186;DHT22;22228;53.222;7.446;2023-07-29T17:05:55;22.50;23.70
36186;DHT22;22228;53.222;7.446;2023-07-29T17:08:16;22.50;39.20
36186;DHT22;22228;53.222;7.446;2023-07-29T17:10:37;22.60;87.60
36186;DHT22;22228;53.222;7.446;2023-07-29T17:12:57;22.60;99.90
36186;DHT22;22228;53.222;7.446;2023-07-29T17:15:18;22.60;99.90
36186;DHT22;22228;53.222;7.446;2023-07-29T17:17:40;22.60;99.90
36186;DHT22;22228;53.222;7.446;2023-07-29T17:20:00;23.10;97.70
36186;DHT22;22228;53.222;7.446;2023-07-29T17:22:21;23.40;1.00
36186;DHT22;22228;53.222;7.446;2023-07-29T17:24:41;23.40;1.00
36186;DHT22;22228;53.222;7.446;2023-07-29T17:27:02;23.60;1.00
36186;DHT22;22228;53.222;7.446;2023-07-29T17:29:24;23.80;99.90
36186;DHT22;22228;53.222;7.446;2023-07-29T17:31:44;24.30;1.00
36186;DHT22;22228;53.222;7.446;2023-07-29T17:34:06;24.50;1.00
36186;DHT22;22228;53.222;7.446;2023-07-29T17:36:27;24.90;1.00
36186;DHT22;22228;53.222;7.446;2023-07-29T17:38:47;25.30;1.00
36186;DHT22;22228;53.222;7.446;2023-07-29T17:41:08;25.80;1.00